sensor_id;sensor_type;location;lat;lon;timestamp;temperature;humidity
46976;DHT22;32724;51.094;6.996;2022-10-16T00:00:44;12.70;99.90
46976;DHT22;32724;51.094;6.996;2022-10-16T00:03:10;12.80;99.90
46976;DHT22;32724;51.094;6.996;2022-10-16T00:05:40;12.80;99.90
46976;DHT22;32724;51.094;6.996;2022-10-16T00:08:05;12.70;99.90
46976;DHT22;32724;51.094;6.996;2022-10-16T00:10:31;12.80;99.90
46976;DHT22;32724;51.094;6.996;2022-10-16T00:12:56;12.80;99.90
46976;DHT22;32724;51.094;6.996;2022-10-16T00:15:22;12.70;99.90
46976;DHT22;32724;51.094;6.996;2022-10-16T00:17:47;12.70;99.90
46976;DHT22;32724;51.094;6.996;2022-10-16T00:20:13;12.60;99.90
46976;DHT22;32724;51.094;6.996;2022-10-16T00:22:38;12.70;99.90
46976;DHT22;32724;51.094;6.996;2022-10-16T00:25:04;12.60;99.90
46976;DHT22;32724;51.094;6.996;2022-10-16T00:27:29;12.60;99.90
46976;DHT22;32724;51.094;6.996;2022-10-16T00:29:55;12.60;99.90
46976;DHT22;32724;51.094;6.996;2022-10-16T00:32:20;12.60;99.90
46976;DHT22;32724;51.094;6.996;2022-10-16T00:34:46;12.60;99.90
46976;DHT22;32724;51.094;6.996;2022-10-16T00:37:12;12.60;99.90
46976;DHT22;32724;51.094;6.996;2022-10-16T00:39:38;12.60;99.90
46976;DHT22;32724;51.094;6.996;2022-10-16T00:42:03;12.60;99.90
46976;DHT22;32724;51.094;6.996;2022-10-16T00:47:08;12.50;99.90
46976;DHT22;32724;51.094;6.996;2022-10-16T00:49:34;12.40;99.90
46976;DHT22;32724;51.094;6.996;2022-10-16T00:52:00;12.40;99.90
46976;DHT22;32724;51.094;6.996;2022-10-16T00:54:27;12.40;99.90
46976;DHT22;32724;51.094;6.996;2022-10-16T00:56:53;12.30;99.90
46976;DHT22;32724;51.094;6.996;2022-10-16T00:59:20;12.30;99.90
46976;DHT22;32724;51.094;6.996;2022-10-16T01:01:47;12.40;99.90
46976;DHT22;32724;51.094;6.996;2022-10-16T01:04:13;12.30;99.90
46976;DHT22;32724;51.094;6.996;2022-10-16T01:06:42;12.30;99.90
46976;DHT22;32724;51.094;6.996;2022-10-16T01:09:16;12.30;99.90
46976;DHT22;32724;51.094;6.996;2022-10-16T01:14:15;12.20;99.90
46976;DHT22;32724;51.094;6.996;2022-10-16T01:16:56;12.20;99.90
46976;DHT22;32724;51.094;6.996;2022-10-16T01:19:26;12.20;99.90
46976;DHT22;32724;51.094;6.996;2022-10-16T01:21:56;12.20;99.90
46976;DHT22;32724;51.094;6.996;2022-10-16T01:24:38;12.30;99.90
46976;DHT22;32724;51.094;6.996;2022-10-16T01:29:41;12.30;99.90
46976;DHT22;32724;51.094;6.996;2022-10-16T01:32:12;12.30;99.90
46976;DHT22;32724;51.094;6.996;2022-10-16T01:34:40;12.30;99.90
46976;DHT22;32724;51.094;6.996;2022-10-16T01:37:12;12.30;99.90
46976;DHT22;32724;51.094;6.996;2022-10-16T01:39:39;12.30;99.90
46976;DHT22;32724;51.094;6.996;2022-10-16T01:42:08;12.40;99.90
46976;DHT22;32724;51.094;6.996;2022-10-16T01:44:34;12.40;99.90
46976;DHT22;32724;51.094;6.996;2022-10-16T01:47:01;12.40;99.90
46976;DHT22;32724;51.094;6.996;2022-10-16T01:49:29;12.30;99.90
46976;DHT22;32724;51.094;6.996;2022-10-16T01:51:56;12.40;99.90
46976;DHT22;32724;51.094;6.996;2022-10-16T01:54:23;12.40;99.90
46976;DHT22;32724;51.094;6.996;2022-10-16T01:56:51;12.40;99.90
46976;DHT22;32724;51.094;6.996;2022-10-16T01:59:17;12.50;99.90
46976;DHT22;32724;51.094;6.996;2022-10-16T02:01:45;12.50;99.90
46976;DHT22;32724;51.094;6.996;2022-10-16T02:04:23;12.50;99.90
46976;DHT22;32724;51.094;6.996;2022-10-16T02:06:49;12.50;99.90
46976;DHT22;32724;51.094;6.996;2022-10-16T02:09:15;12.50;99.90
46976;DHT22;32724;51.094;6.996;2022-10-16T02:11:42;12.60;99.90
46976;DHT22;32724;51.094;6.996;2022-10-16T02:14:08;12.60;99.90
46976;DHT22;32724;51.094;6.996;2022-10-16T02:16:38;12.60;99.90
46976;DHT22;32724;51.094;6.996;2022-10-16T02:19:05;12.60;99.90
46976;DHT22;32724;51.094;6.996;2022-10-16T02:24:08;12.40;99.90
46976;DHT22;32724;51.094;6.996;2022-10-16T02:29:25;12.10;99.90
46976;DHT22;32724;51.094;6.996;2022-10-16T02:31:53;12.30;99.90
46976;DHT22;32724;51.094;6.996;2022-10-16T02:34:20;12.40;99.90
46976;DHT22;32724;51.094;6.996;2022-10-16T02:36:47;12.40;99.90
46976;DHT22;32724;51.094;6.996;2022-10-16T02:39:13;12.50;99.90
46976;DHT22;32724;51.094;6.996;2022-10-16T02:41:39;12.60;99.90
46976;DHT22;32724;51.094;6.996;2022-10-16T02:44:04;12.60;99.90
46976;DHT22;32724;51.094;6.996;2022-10-16T02:46:30;12.60;99.90
46976;DHT22;32724;51.094;6.996;2022-10-16T02:48:55;12.70;99.90
46976;DHT22;32724;51.094;6.996;2022-10-16T02:51:21;12.70;99.90
46976;DHT22;32724;51.094;6.996;2022-10-16T02:53:46;12.70;99.90
46976;DHT22;32724;51.094;6.996;2022-10-16T02:56:12;12.70;99.90
46976;DHT22;32724;51.094;6.996;2022-10-16T02:58:37;12.70;99.90
46976;DHT22;32724;51.094;6.996;2022-10-16T03:01:03;12.80;99.90
46976;DHT22;32724;51.094;6.996;2022-10-16T03:03:28;12.80;99.90
46976;DHT22;32724;51.094;6.996;2022-10-16T03:05:53;12.80;99.90
46976;DHT22;32724;51.094;6.996;2022-10-16T03:08:19;12.80;99.90
46976;DHT22;32724;51.094;6.996;2022-10-16T03:10:49;12.80;99.90
46976;DHT22;32724;51.094;6.996;2022-10-16T03:13:14;12.80;99.90
46976;DHT22;32724;51.094;6.996;2022-10-16T03:15:40;12.80;99.90
46976;DHT22;32724;51.094;6.996;2022-10-16T03:18:05;12.90;99.90
46976;DHT22;32724;51.094;6.996;2022-10-16T03:20:31;12.80;99.90
46976;DHT22;32724;51.094;6.996;2022-10-16T03:22:56;12.80;99.90
46976;DHT22;32724;51.094;6.996;2022-10-16T03:25:22;12.80;99.90
46976;DHT22;32724;51.094;6.996;2022-10-16T03:27:47;12.70;99.90
46976;DHT22;32724;51.094;6.996;2022-10-16T03:30:12;12.70;99.90
46976;DHT22;32724;51.094;6.996;2022-10-16T03:32:38;12.70;99.90
46976;DHT22;32724;51.094;6.996;2022-10-16T03:35:04;12.70;99.90
46976;DHT22;32724;51.094;6.996;2022-10-16T03:37:29;12.60;99.90
46976;DHT22;32724;51.094;6.996;2022-10-16T03:39:54;12.60;99.90
46976;DHT22;32724;51.094;6.996;2022-10-16T03:42:20;12.30;99.90
46976;DHT22;32724;51.094;6.996;2022-10-16T03:44:45;12.10;99.90
46976;DHT22;32724;51.094;6.996;2022-10-16T03:47:11;12.10;99.90
46976;DHT22;32724;51.094;6.996;2022-10-16T03:49:36;12.10;99.90
46976;DHT22;32724;51.094;6.996;2022-10-16T03:52:02;12.20;99.90
46976;DHT22;32724;51.094;6.996;2022-10-16T03:54:27;12.30;99.90
46976;DHT22;32724;51.094;6.996;2022-10-16T03:56:53;12.30;99.90
46976;DHT22;32724;51.094;6.996;2022-10-16T03:59:18;12.40;99.90
46976;DHT22;32724;51.094;6.996;2022-10-16T04:01:44;12.40;99.90
46976;DHT22;32724;51.094;6.996;2022-10-16T04:04:09;12.50;99.90
46976;DHT22;32724;51.094;6.996;2022-10-16T04:06:35;12.50;99.90
46976;DHT22;32724;51.094;6.996;2022-10-16T04:09:00;12.50;99.90
46976;DHT22;32724;51.094;6.996;2022-10-16T04:11:26;12.60;99.90
46976;DHT22;32724;51.094;6.996;2022-10-16T04:13:51;12.60;99.90
46976;DHT22;32724;51.094;6.996;2022-10-16T04:16:17;12.60;99.90
46976;DHT22;32724;51.094;6.996;2022-10-16T04:18:42;12.60;99.90
46976;DHT22;32724;51.094;6.996;2022-10-16T04:21:08;12.60;99.90
46976;DHT22;32724;51.094;6.996;2022-10-16T04:23:33;12.60;99.90
46976;DHT22;32724;51.094;6.996;2022-10-16T04:28:30;12.70;99.90
46976;DHT22;32724;51.094;6.996;2022-10-16T04:30:55;12.70;99.90
46976;DHT22;32724;51.094;6.996;2022-10-16T04:33:21;12.60;99.90
46976;DHT22;32724;51.094;6.996;2022-10-16T04:35:46;12.60;99.90
46976;DHT22;32724;51.094;6.996;2022-10-16T04:38:12;12.50;99.90
46976;DHT22;32724;51.094;6.996;2022-10-16T04:40:37;12.50;99.90
46976;DHT22;32724;51.094;6.996;2022-10-16T04:43:03;12.40;99.90
46976;DHT22;32724;51.094;6.996;2022-10-16T04:45:29;12.40;99.90
46976;DHT22;32724;51.094;6.996;2022-10-16T04:47:58;12.40;99.90
46976;DHT22;32724;51.094;6.996;2022-10-16T04:50:23;12.30;99.90
46976;DHT22;32724;51.094;6.996;2022-10-16T04:52:49;12.20;99.90
46976;DHT22;32724;51.094;6.996;2022-10-16T04:55:14;12.20;99.90
46976;DHT22;32724;51.094;6.996;2022-10-16T04:57:40;12.20;99.90
46976;DHT22;32724;51.094;6.996;2022-10-16T05:00:05;12.20;99.90
46976;DHT22;32724;51.094;6.996;2022-10-16T05:02:31;12.20;99.90
46976;DHT22;32724;51.094;6.996;2022-10-16T05:04:56;12.20;99.90
46976;DHT22;32724;51.094;6.996;2022-10-16T05:07:22;12.20;99.90
46976;DHT22;32724;51.094;6.996;2022-10-16T05:09:47;12.10;99.90
46976;DHT22;32724;51.094;6.996;2022-10-16T05:12:13;11.70;99.90
46976;DHT22;32724;51.094;6.996;2022-10-16T05:14:38;11.70;99.90
46976;DHT22;32724;51.094;6.996;2022-10-16T05:17:04;11.70;99.90
46976;DHT22;32724;51.094;6.996;2022-10-16T05:19:29;11.70;99.90
46976;DHT22;32724;51.094;6.996;2022-10-16T05:21:55;11.80;99.90
46976;DHT22;32724;51.094;6.996;2022-10-16T05:24:20;11.90;99.90
46976;DHT22;32724;51.094;6.996;2022-10-16T05:26:45;11.90;99.90
46976;DHT22;32724;51.094;6.996;2022-10-16T05:29:11;11.90;99.90
46976;DHT22;32724;51.094;6.996;2022-10-16T05:31:37;11.90;99.90
46976;DHT22;32724;51.094;6.996;2022-10-16T05:34:02;11.90;99.90
46976;DHT22;32724;51.094;6.996;2022-10-16T05:36:28;12.00;99.90
46976;DHT22;32724;51.094;6.996;2022-10-16T05:38:53;11.90;99.90
46976;DHT22;32724;51.094;6.996;2022-10-16T05:41:19;11.90;99.90
46976;DHT22;32724;51.094;6.996;2022-10-16T05:43:49;11.90;99.90
46976;DHT22;32724;51.094;6.996;2022-10-16T05:46:15;12.00;99.90
46976;DHT22;32724;51.094;6.996;2022-10-16T05:48:41;12.00;99.90
46976;DHT22;32724;51.094;6.996;2022-10-16T05:51:07;12.10;99.90
46976;DHT22;32724;51.094;6.996;2022-10-16T05:53:34;12.10;99.90
46976;DHT22;32724;51.094;6.996;2022-10-16T05:56:00;12.10;99.90
46976;DHT22;32724;51.094;6.996;2022-10-16T05:58:28;12.10;99.90
46976;DHT22;32724;51.094;6.996;2022-10-16T06:01:02;12.10;99.90
46976;DHT22;32724;51.094;6.996;2022-10-16T06:03:27;12.20;99.90
46976;DHT22;32724;51.094;6.996;2022-10-16T06:05:53;12.20;99.90
46976;DHT22;32724;51.094;6.996;2022-10-16T06:08:19;12.10;99.90
46976;DHT22;32724;51.094;6.996;2022-10-16T06:10:45;12.10;99.90
46976;DHT22;32724;51.094;6.996;2022-10-16T06:13:11;12.10;99.90
46976;DHT22;32724;51.094;6.996;2022-10-16T06:15:37;12.20;99.90
46976;DHT22;32724;51.094;6.996;2022-10-16T06:18:04;12.20;99.90
46976;DHT22;32724;51.094;6.996;2022-10-16T06:20:30;12.30;99.90
46976;DHT22;32724;51.094;6.996;2022-10-16T06:22:55;12.30;99.90
46976;DHT22;32724;51.094;6.996;2022-10-16T06:25:21;12.30;99.90
46976;DHT22;32724;51.094;6.996;2022-10-16T06:27:47;12.40;99.90
46976;DHT22;32724;51.094;6.996;2022-10-16T06:30:12;12.40;99.90
46976;DHT22;32724;51.094;6.996;2022-10-16T06:32:38;12.40;99.90
46976;DHT22;32724;51.094;6.996;2022-10-16T06:35:03;12.50;99.90
46976;DHT22;32724;51.094;6.996;2022-10-16T06:37:29;12.50;99.90
46976;DHT22;32724;51.094;6.996;2022-10-16T06:39:54;12.60;99.90
46976;DHT22;32724;51.094;6.996;2022-10-16T06:42:20;12.60;99.90
46976;DHT22;32724;51.094;6.996;2022-10-16T06:44:45;12.70;99.90
46976;DHT22;32724;51.094;6.996;2022-10-16T06:47:11;12.50;99.90
46976;DHT22;32724;51.094;6.996;2022-10-16T06:49:36;12.30;99.90
46976;DHT22;32724;51.094;6.996;2022-10-16T06:52:02;12.50;99.90
46976;DHT22;32724;51.094;6.996;2022-10-16T06:54:27;12.60;99.90
46976;DHT22;32724;51.094;6.996;2022-10-16T06:56:53;12.60;99.90
46976;DHT22;32724;51.094;6.996;2022-10-16T06:59:20;12.50;99.90
46976;DHT22;32724;51.094;6.996;2022-10-16T07:01:45;12.50;99.90
46976;DHT22;32724;51.094;6.996;2022-10-16T07:04:11;12.60;99.90
46976;DHT22;32724;51.094;6.996;2022-10-16T07:06:37;12.50;99.90
46976;DHT22;32724;51.094;6.996;2022-10-16T07:09:04;12.70;99.90
46976;DHT22;32724;51.094;6.996;2022-10-16T07:11:30;13.00;99.90
46976;DHT22;32724;51.094;6.996;2022-10-16T07:13:55;13.20;99.90
46976;DHT22;32724;51.094;6.996;2022-10-16T07:16:21;13.40;99.90
46976;DHT22;32724;51.094;6.996;2022-10-16T07:18:48;13.60;99.90
46976;DHT22;32724;51.094;6.996;2022-10-16T07:21:15;13.60;99.90
46976;DHT22;32724;51.094;6.996;2022-10-16T07:23:41;13.70;99.90
46976;DHT22;32724;51.094;6.996;2022-10-16T07:26:07;13.70;99.90
46976;DHT22;32724;51.094;6.996;2022-10-16T07:28:33;13.80;99.90
46976;DHT22;32724;51.094;6.996;2022-10-16T07:31:02;13.80;99.90
46976;DHT22;32724;51.094;6.996;2022-10-16T07:33:27;13.80;99.90
46976;DHT22;32724;51.094;6.996;2022-10-16T07:35:54;13.80;99.90
46976;DHT22;32724;51.094;6.996;2022-10-16T07:38:20;13.80;99.90
46976;DHT22;32724;51.094;6.996;2022-10-16T07:40:45;13.90;99.90
46976;DHT22;32724;51.094;6.996;2022-10-16T07:43:11;14.10;99.90
46976;DHT22;32724;51.094;6.996;2022-10-16T07:45:36;14.20;99.90
46976;DHT22;32724;51.094;6.996;2022-10-16T07:48:02;14.30;99.90
46976;DHT22;32724;51.094;6.996;2022-10-16T07:50:27;14.40;99.90
46976;DHT22;32724;51.094;6.996;2022-10-16T07:52:53;14.40;99.90
46976;DHT22;32724;51.094;6.996;2022-10-16T07:55:18;14.30;99.90
46976;DHT22;32724;51.094;6.996;2022-10-16T07:57:44;14.30;99.90
46976;DHT22;32724;51.094;6.996;2022-10-16T08:00:09;14.30;99.90
46976;DHT22;32724;51.094;6.996;2022-10-16T08:02:41;14.30;99.90
46976;DHT22;32724;51.094;6.996;2022-10-16T08:05:07;14.50;99.90
46976;DHT22;32724;51.094;6.996;2022-10-16T08:07:33;14.60;99.90
46976;DHT22;32724;51.094;6.996;2022-10-16T08:09:58;14.80;99.90
46976;DHT22;32724;51.094;6.996;2022-10-16T08:12:25;15.00;99.90
46976;DHT22;32724;51.094;6.996;2022-10-16T08:14:50;15.20;99.90
46976;DHT22;32724;51.094;6.996;2022-10-16T08:17:16;15.40;99.90
46976;DHT22;32724;51.094;6.996;2022-10-16T08:19:47;15.60;99.90
46976;DHT22;32724;51.094;6.996;2022-10-16T08:22:16;15.80;99.90
46976;DHT22;32724;51.094;6.996;2022-10-16T08:24:41;16.00;99.90
46976;DHT22;32724;51.094;6.996;2022-10-16T08:27:07;16.10;99.90
46976;DHT22;32724;51.094;6.996;2022-10-16T08:29:34;16.30;99.90
46976;DHT22;32724;51.094;6.996;2022-10-16T08:31:59;16.40;99.90
46976;DHT22;32724;51.094;6.996;2022-10-16T08:34:25;16.50;99.90
46976;DHT22;32724;51.094;6.996;2022-10-16T08:36:52;16.70;99.90
46976;DHT22;32724;51.094;6.996;2022-10-16T08:39:18;16.80;99.90
46976;DHT22;32724;51.094;6.996;2022-10-16T08:49:10;17.10;99.90
46976;DHT22;32724;51.094;6.996;2022-10-16T08:51:36;17.00;99.90
46976;DHT22;32724;51.094;6.996;2022-10-16T08:54:08;17.00;99.90
46976;DHT22;32724;51.094;6.996;2022-10-16T08:56:35;17.10;99.90
46976;DHT22;32724;51.094;6.996;2022-10-16T08:59:01;17.10;99.90
46976;DHT22;32724;51.094;6.996;2022-10-16T09:01:41;17.10;99.90
46976;DHT22;32724;51.094;6.996;2022-10-16T09:19:38;17.60;99.90
46976;DHT22;32724;51.094;6.996;2022-10-16T09:22:10;17.60;99.90
46976;DHT22;32724;51.094;6.996;2022-10-16T09:24:37;17.20;99.90
46976;DHT22;32724;51.094;6.996;2022-10-16T09:27:03;17.00;99.90
46976;DHT22;32724;51.094;6.996;2022-10-16T09:29:28;16.90;99.90
46976;DHT22;32724;51.094;6.996;2022-10-16T09:31:54;16.80;99.90
46976;DHT22;32724;51.094;6.996;2022-10-16T09:34:33;16.50;99.90
46976;DHT22;32724;51.094;6.996;2022-10-16T09:37:00;16.40;99.90
46976;DHT22;32724;51.094;6.996;2022-10-16T09:39:28;16.50;99.90
46976;DHT22;32724;51.094;6.996;2022-10-16T09:41:53;16.60;99.90
46976;DHT22;32724;51.094;6.996;2022-10-16T09:44:28;16.60;99.90
46976;DHT22;32724;51.094;6.996;2022-10-16T09:47:03;16.90;99.90
46976;DHT22;32724;51.094;6.996;2022-10-16T09:49:28;17.10;99.90
46976;DHT22;32724;51.094;6.996;2022-10-16T09:52:04;17.50;99.90
46976;DHT22;32724;51.094;6.996;2022-10-16T09:54:29;17.80;99.90
46976;DHT22;32724;51.094;6.996;2022-10-16T09:57:03;17.90;99.90
46976;DHT22;32724;51.094;6.996;2022-10-16T09:59:31;18.10;99.90
46976;DHT22;32724;51.094;6.996;2022-10-16T10:01:56;18.10;99.90
46976;DHT22;32724;51.094;6.996;2022-10-16T10:04:25;18.20;99.90
46976;DHT22;32724;51.094;6.996;2022-10-16T10:06:54;18.30;99.90
46976;DHT22;32724;51.094;6.996;2022-10-16T10:09:24;18.20;99.90
46976;DHT22;32724;51.094;6.996;2022-10-16T10:11:56;18.30;99.90
46976;DHT22;32724;51.094;6.996;2022-10-16T10:16:51;18.40;99.90
46976;DHT22;32724;51.094;6.996;2022-10-16T10:19:18;18.30;99.90
46976;DHT22;32724;51.094;6.996;2022-10-16T10:21:44;18.40;99.90
46976;DHT22;32724;51.094;6.996;2022-10-16T10:24:10;18.50;99.90
46976;DHT22;32724;51.094;6.996;2022-10-16T10:26:36;18.60;99.90
46976;DHT22;32724;51.094;6.996;2022-10-16T10:31:29;18.60;99.90
46976;DHT22;32724;51.094;6.996;2022-10-16T10:36:41;18.70;99.90
46976;DHT22;32724;51.094;6.996;2022-10-16T10:39:27;18.90;99.90
46976;DHT22;32724;51.094;6.996;2022-10-16T10:46:56;19.30;99.90
46976;DHT22;32724;51.094;6.996;2022-10-16T10:49:32;19.20;99.90
46976;DHT22;32724;51.094;6.996;2022-10-16T10:52:06;19.20;99.90
46976;DHT22;32724;51.094;6.996;2022-10-16T10:54:51;19.30;99.90
46976;DHT22;32724;51.094;6.996;2022-10-16T11:00:00;19.10;99.90
46976;DHT22;32724;51.094;6.996;2022-10-16T11:02:33;19.00;99.90
46976;DHT22;32724;51.094;6.996;2022-10-16T11:05:45;18.90;99.90
46976;DHT22;32724;51.094;6.996;2022-10-16T11:08:09;19.00;99.90
46976;DHT22;32724;51.094;6.996;2022-10-16T11:10:53;19.00;99.90
46976;DHT22;32724;51.094;6.996;2022-10-16T11:13:25;19.10;99.90
46976;DHT22;32724;51.094;6.996;2022-10-16T11:15:52;19.10;99.90
46976;DHT22;32724;51.094;6.996;2022-10-16T11:18:30;19.10;99.90
46976;DHT22;32724;51.094;6.996;2022-10-16T11:21:01;19.20;99.90
46976;DHT22;32724;51.094;6.996;2022-10-16T11:23:31;19.30;99.90
46976;DHT22;32724;51.094;6.996;2022-10-16T11:26:02;19.40;99.90
46976;DHT22;32724;51.094;6.996;2022-10-16T11:28:31;19.50;99.90
46976;DHT22;32724;51.094;6.996;2022-10-16T11:35:53;19.50;99.90
46976;DHT22;32724;51.094;6.996;2022-10-16T11:38:38;19.40;99.90
46976;DHT22;32724;51.094;6.996;2022-10-16T11:43:43;19.30;99.90
46976;DHT22;32724;51.094;6.996;2022-10-16T11:46:15;19.40;99.90
46976;DHT22;32724;51.094;6.996;2022-10-16T11:48:45;19.60;99.90
46976;DHT22;32724;51.094;6.996;2022-10-16T11:51:19;19.80;99.90
46976;DHT22;32724;51.094;6.996;2022-10-16T11:54:04;19.80;99.90
46976;DHT22;32724;51.094;6.996;2022-10-16T11:56:32;19.70;99.90
46976;DHT22;32724;51.094;6.996;2022-10-16T11:59:06;19.70;99.90
46976;DHT22;32724;51.094;6.996;2022-10-16T12:01:37;19.70;99.90
46976;DHT22;32724;51.094;6.996;2022-10-16T12:06:35;19.90;99.90
46976;DHT22;32724;51.094;6.996;2022-10-16T12:09:02;20.20;99.90
46976;DHT22;32724;51.094;6.996;2022-10-16T12:16:53;20.00;99.90
46976;DHT22;32724;51.094;6.996;2022-10-16T12:19:19;19.90;99.90
46976;DHT22;32724;51.094;6.996;2022-10-16T12:21:45;19.80;99.90
46976;DHT22;32724;51.094;6.996;2022-10-16T12:24:21;19.70;99.90
46976;DHT22;32724;51.094;6.996;2022-10-16T12:26:47;19.60;99.90
46976;DHT22;32724;51.094;6.996;2022-10-16T12:29:28;19.50;99.90
46976;DHT22;32724;51.094;6.996;2022-10-16T12:31:55;19.40;99.90
46976;DHT22;32724;51.094;6.996;2022-10-16T12:34:22;19.30;99.90
46976;DHT22;32724;51.094;6.996;2022-10-16T12:36:48;19.30;99.90
46976;DHT22;32724;51.094;6.996;2022-10-16T12:39:24;19.20;99.90
46976;DHT22;32724;51.094;6.996;2022-10-16T12:42:03;19.20;99.90
46976;DHT22;32724;51.094;6.996;2022-10-16T12:44:33;19.20;99.90
46976;DHT22;32724;51.094;6.996;2022-10-16T12:46:59;19.30;99.90
46976;DHT22;32724;51.094;6.996;2022-10-16T12:51:53;19.40;99.90
46976;DHT22;32724;51.094;6.996;2022-10-16T12:54:27;19.40;99.90
46976;DHT22;32724;51.094;6.996;2022-10-16T13:07:15;20.10;99.90
46976;DHT22;32724;51.094;6.996;2022-10-16T13:15:16;20.40;99.90
46976;DHT22;32724;51.094;6.996;2022-10-16T13:28:04;20.70;99.90
46976;DHT22;32724;51.094;6.996;2022-10-16T13:30:31;20.70;99.90
46976;DHT22;32724;51.094;6.996;2022-10-16T13:33:03;20.60;99.90
46976;DHT22;32724;51.094;6.996;2022-10-16T13:35:31;20.50;99.90
46976;DHT22;32724;51.094;6.996;2022-10-16T13:38:31;20.40;99.90
46976;DHT22;32724;51.094;6.996;2022-10-16T13:41:05;20.30;99.90
46976;DHT22;32724;51.094;6.996;2022-10-16T13:43:32;20.10;99.90
46976;DHT22;32724;51.094;6.996;2022-10-16T13:46:02;20.00;99.90
46976;DHT22;32724;51.094;6.996;2022-10-16T13:48:29;19.90;99.90
46976;DHT22;32724;51.094;6.996;2022-10-16T13:50:59;19.90;99.90
46976;DHT22;32724;51.094;6.996;2022-10-16T13:53:25;19.90;99.90
46976;DHT22;32724;51.094;6.996;2022-10-16T13:55:50;20.00;99.90
46976;DHT22;32724;51.094;6.996;2022-10-16T13:58:16;20.00;99.90
46976;DHT22;32724;51.094;6.996;2022-10-16T14:00:52;20.00;99.90
46976;DHT22;32724;51.094;6.996;2022-10-16T14:03:18;19.80;99.90
46976;DHT22;32724;51.094;6.996;2022-10-16T14:05:52;19.70;99.90
46976;DHT22;32724;51.094;6.996;2022-10-16T14:08:18;19.50;99.90
46976;DHT22;32724;51.094;6.996;2022-10-16T14:10:47;19.50;99.90
46976;DHT22;32724;51.094;6.996;2022-10-16T14:13:14;19.30;99.90
46976;DHT22;32724;51.094;6.996;2022-10-16T14:15:40;19.30;99.90
46976;DHT22;32724;51.094;6.996;2022-10-16T14:18:14;19.40;99.90
46976;DHT22;32724;51.094;6.996;2022-10-16T14:20:43;19.50;99.90
46976;DHT22;32724;51.094;6.996;2022-10-16T14:25:52;19.50;99.90
46976;DHT22;32724;51.094;6.996;2022-10-16T14:33:20;19.60;99.90
46976;DHT22;32724;51.094;6.996;2022-10-16T14:35:45;19.60;99.90
46976;DHT22;32724;51.094;6.996;2022-10-16T14:38:17;19.50;99.90
46976;DHT22;32724;51.094;6.996;2022-10-16T14:40:46;19.40;99.90
46976;DHT22;32724;51.094;6.996;2022-10-16T14:43:20;19.30;99.90
46976;DHT22;32724;51.094;6.996;2022-10-16T14:45:49;19.30;99.90
46976;DHT22;32724;51.094;6.996;2022-10-16T14:48:16;19.30;99.90
46976;DHT22;32724;51.094;6.996;2022-10-16T14:50:43;19.20;99.90
46976;DHT22;32724;51.094;6.996;2022-10-16T14:53:10;19.20;99.90
46976;DHT22;32724;51.094;6.996;2022-10-16T14:55:36;19.20;99.90
46976;DHT22;32724;51.094;6.996;2022-10-16T14:58:02;19.20;99.90
46976;DHT22;32724;51.094;6.996;2022-10-16T15:00:27;19.20;99.90
46976;DHT22;32724;51.094;6.996;2022-10-16T15:02:53;19.20;99.90
46976;DHT22;32724;51.094;6.996;2022-10-16T15:05:20;19.20;99.90
46976;DHT22;32724;51.094;6.996;2022-10-16T15:07:46;19.20;99.90
46976;DHT22;32724;51.094;6.996;2022-10-16T15:10:12;19.30;99.90
46976;DHT22;32724;51.094;6.996;2022-10-16T15:12:38;19.20;99.90
46976;DHT22;32724;51.094;6.996;2022-10-16T15:17:48;19.10;99.90
46976;DHT22;32724;51.094;6.996;2022-10-16T15:20:13;19.00;99.90
46976;DHT22;32724;51.094;6.996;2022-10-16T15:22:39;18.90;99.90
46976;DHT22;32724;51.094;6.996;2022-10-16T15:25:10;18.90;99.90
46976;DHT22;32724;51.094;6.996;2022-10-16T15:27:42;18.90;99.90
46976;DHT22;32724;51.094;6.996;2022-10-16T15:30:08;18.80;99.90
46976;DHT22;32724;51.094;6.996;2022-10-16T15:32:33;18.70;99.90
46976;DHT22;32724;51.094;6.996;2022-10-16T15:34:59;18.70;99.90
46976;DHT22;32724;51.094;6.996;2022-10-16T15:37:24;18.60;99.90
46976;DHT22;32724;51.094;6.996;2022-10-16T15:39:50;18.60;99.90
46976;DHT22;32724;51.094;6.996;2022-10-16T15:42:15;18.60;99.90
46976;DHT22;32724;51.094;6.996;2022-10-16T15:44:41;18.50;99.90
46976;DHT22;32724;51.094;6.996;2022-10-16T15:47:07;18.50;99.90
46976;DHT22;32724;51.094;6.996;2022-10-16T15:49:32;18.40;99.90
46976;DHT22;32724;51.094;6.996;2022-10-16T15:51:58;18.40;99.90
46976;DHT22;32724;51.094;6.996;2022-10-16T15:54:23;18.30;99.90
46976;DHT22;32724;51.094;6.996;2022-10-16T15:56:49;18.20;99.90
46976;DHT22;32724;51.094;6.996;2022-10-16T15:59:14;18.20;99.90
46976;DHT22;32724;51.094;6.996;2022-10-16T16:01:40;18.10;99.90
46976;DHT22;32724;51.094;6.996;2022-10-16T16:04:06;18.10;99.90
46976;DHT22;32724;51.094;6.996;2022-10-16T16:06:31;18.00;99.90
46976;DHT22;32724;51.094;6.996;2022-10-16T16:08:57;18.00;99.90
46976;DHT22;32724;51.094;6.996;2022-10-16T16:11:24;18.00;99.90
46976;DHT22;32724;51.094;6.996;2022-10-16T16:13:50;17.90;99.90
46976;DHT22;32724;51.094;6.996;2022-10-16T16:16:16;17.90;99.90
46976;DHT22;32724;51.094;6.996;2022-10-16T16:18:42;17.90;99.90
46976;DHT22;32724;51.094;6.996;2022-10-16T16:21:09;17.90;99.90
46976;DHT22;32724;51.094;6.996;2022-10-16T16:23:34;17.80;99.90
46976;DHT22;32724;51.094;6.996;2022-10-16T16:26:07;17.80;99.90
46976;DHT22;32724;51.094;6.996;2022-10-16T16:28:35;17.70;99.90
46976;DHT22;32724;51.094;6.996;2022-10-16T16:31:01;17.70;99.90
46976;DHT22;32724;51.094;6.996;2022-10-16T16:33:27;17.70;99.90
46976;DHT22;32724;51.094;6.996;2022-10-16T16:35:56;17.70;99.90
46976;DHT22;32724;51.094;6.996;2022-10-16T16:38:21;17.60;99.90
46976;DHT22;32724;51.094;6.996;2022-10-16T16:40:47;17.60;99.90
46976;DHT22;32724;51.094;6.996;2022-10-16T16:43:12;17.60;99.90
46976;DHT22;32724;51.094;6.996;2022-10-16T16:45:38;17.60;99.90
46976;DHT22;32724;51.094;6.996;2022-10-16T16:48:03;17.50;99.90
46976;DHT22;32724;51.094;6.996;2022-10-16T16:50:34;17.50;99.90
46976;DHT22;32724;51.094;6.996;2022-10-16T16:53:00;17.50;99.90
46976;DHT22;32724;51.094;6.996;2022-10-16T16:55:25;17.40;99.90
46976;DHT22;32724;51.094;6.996;2022-10-16T16:57:51;17.40;99.90
46976;DHT22;32724;51.094;6.996;2022-10-16T17:00:16;17.40;99.90
46976;DHT22;32724;51.094;6.996;2022-10-16T17:02:41;17.30;99.90
46976;DHT22;32724;51.094;6.996;2022-10-16T17:05:08;17.30;99.90
46976;DHT22;32724;51.094;6.996;2022-10-16T17:07:34;17.30;99.90
46976;DHT22;32724;51.094;6.996;2022-10-16T17:10:00;17.30;99.90
46976;DHT22;32724;51.094;6.996;2022-10-16T17:12:26;17.40;99.90
46976;DHT22;32724;51.094;6.996;2022-10-16T17:14:51;17.30;99.90
46976;DHT22;32724;51.094;6.996;2022-10-16T17:17:16;17.30;99.90
46976;DHT22;32724;51.094;6.996;2022-10-16T17:19:42;17.30;99.90